sensor_id;sensor_type;location;lat;lon;timestamp;P1;durP1;ratioP1;P2;durP2;ratioP2
55575;SDS011;41437;45.478;9.116;2023-12-20T00:11:55;43.97;;;29.77;;
55575;SDS011;41437;45.478;9.116;2023-12-20T00:14:57;45.10;;;28.38;;
55575;SDS011;41437;45.478;9.116;2023-12-20T00:17:58;49.50;;;29.90;;
55575;SDS011;41437;45.478;9.116;2023-12-20T00:21:00;41.03;;;28.42;;
55575;SDS011;41437;45.478;9.116;2023-12-20T00:24:02;47.15;;;30.35;;
55575;SDS011;41437;45.478;9.116;2023-12-20T00:27:06;40.13;;;28.55;;
55575;SDS011;41437;45.478;9.116;2023-12-20T00:30:08;43.92;;;30.38;;
55575;SDS011;41437;45.478;9.116;2023-12-20T00:54:22;58.40;;;37.13;;
55575;SDS011;41437;45.478;9.116;2023-12-20T00:57:25;56.13;;;37.78;;
55575;SDS011;41437;45.478;9.116;2023-12-20T01:00:26;58.33;;;37.58;;
55575;SDS011;41437;45.478;9.116;2023-12-20T01:03:28;58.10;;;39.45;;
55575;SDS011;41437;45.478;9.116;2023-12-20T01:06:31;56.65;;;38.03;;
55575;SDS011;41437;45.478;9.116;2023-12-20T01:09:32;58.30;;;38.22;;
55575;SDS011;41437;45.478;9.116;2023-12-20T01:12:35;49.00;;;33.55;;
55575;SDS011;41437;45.478;9.116;2023-12-20T01:15:37;55.13;;;35.60;;
55575;SDS011;41437;45.478;9.116;2023-12-20T01:18:39;46.83;;;34.03;;
55575;SDS011;41437;45.478;9.116;2023-12-20T01:21:40;50.95;;;33.78;;
55575;SDS011;41437;45.478;9.116;2023-12-20T01:24:42;54.35;;;36.28;;
55575;SDS011;41437;45.478;9.116;2023-12-20T01:27:45;51.78;;;34.65;;
55575;SDS011;41437;45.478;9.116;2023-12-20T01:30:47;53.70;;;35.08;;
55575;SDS011;41437;45.478;9.116;2023-12-20T01:33:48;50.75;;;34.97;;
55575;SDS011;41437;45.478;9.116;2023-12-20T01:36:50;52.05;;;33.70;;
55575;SDS011;41437;45.478;9.116;2023-12-20T01:39:51;45.97;;;30.95;;
55575;SDS011;41437;45.478;9.116;2023-12-20T01:43:00;46.40;;;31.52;;
55575;SDS011;41437;45.478;9.116;2023-12-20T01:46:03;43.85;;;30.27;;
55575;SDS011;41437;45.478;9.116;2023-12-20T01:49:05;43.83;;;29.52;;
55575;SDS011;41437;45.478;9.116;2023-12-20T01:52:07;43.25;;;30.05;;
55575;SDS011;41437;45.478;9.116;2023-12-20T01:55:10;44.13;;;30.88;;
55575;SDS011;41437;45.478;9.116;2023-12-20T01:58:16;45.58;;;30.23;;
55575;SDS011;41437;45.478;9.116;2023-12-20T02:01:18;43.92;;;30.13;;
55575;SDS011;41437;45.478;9.116;2023-12-20T02:04:20;46.30;;;31.20;;
55575;SDS011;41437;45.478;9.116;2023-12-20T02:07:22;45.42;;;30.27;;
55575;SDS011;41437;45.478;9.116;2023-12-20T02:10:24;45.60;;;30.67;;
55575;SDS011;41437;45.478;9.116;2023-12-20T02:13:27;42.75;;;29.90;;
55575;SDS011;41437;45.478;9.116;2023-12-20T02:16:29;44.72;;;30.33;;
55575;SDS011;41437;45.478;9.116;2023-12-20T02:19:30;44.85;;;31.23;;
55575;SDS011;41437;45.478;9.116;2023-12-20T02:22:33;44.22;;;30.77;;
55575;SDS011;41437;45.478;9.116;2023-12-20T02:25:35;46.80;;;32.50;;
55575;SDS011;41437;45.478;9.116;2023-12-20T02:28:37;47.10;;;31.27;;
55575;SDS011;41437;45.478;9.116;2023-12-20T07:49:51;36.83;;;22.88;;
55575;SDS011;41437;45.478;9.116;2023-12-20T07:52:54;35.77;;;23.77;;
55575;SDS011;41437;45.478;9.116;2023-12-20T10:31:34;47.70;;;29.58;;
55575;SDS011;41437;45.478;9.116;2023-12-20T10:34:36;71.90;;;30.70;;
55575;SDS011;41437;45.478;9.116;2023-12-20T10:37:39;62.42;;;29.23;;
55575;SDS011;41437;45.478;9.116;2023-12-20T10:40:41;40.38;;;27.35;;
55575;SDS011;41437;45.478;9.116;2023-12-20T10:43:43;56.70;;;25.50;;
55575;SDS011;41437;45.478;9.116;2023-12-20T10:52:54;40.65;;;27.52;;
55575;SDS011;41437;45.478;9.116;2023-12-20T10:55:56;36.55;;;25.80;;
55575;SDS011;41437;45.478;9.116;2023-12-20T10:59:03;44.22;;;26.83;;
55575;SDS011;41437;45.478;9.116;2023-12-20T11:02:10;38.95;;;25.15;;
55575;SDS011;41437;45.478;9.116;2023-12-20T11:05:13;37.72;;;26.35;;
55575;SDS011;41437;45.478;9.116;2023-12-20T11:08:26;37.83;;;25.10;;
55575;SDS011;41437;45.478;9.116;2023-12-20T11:11:34;39.08;;;26.92;;
55575;SDS011;41437;45.478;9.116;2023-12-20T11:14:41;35.08;;;24.67;;
55575;SDS011;41437;45.478;9.116;2023-12-20T11:17:50;35.13;;;25.45;;
55575;SDS011;41437;45.478;9.116;2023-12-20T11:20:55;34.92;;;25.35;;
55575;SDS011;41437;45.478;9.116;2023-12-20T11:24:03;34.80;;;25.40;;
